sensor_id;sensor_type;location;lat;lon;timestamp;temperature;humidity
11961;DHT22;6040;49.358;11.140;2023-07-20T00:02:22;16.80;99.90
11961;DHT22;6040;49.358;11.140;2023-07-20T00:04:48;16.90;99.90
11961;DHT22;6040;49.358;11.140;2023-07-20T00:07:17;16.90;99.90
11961;DHT22;6040;49.358;11.140;2023-07-20T00:09:43;16.90;99.90
11961;DHT22;6040;49.358;11.140;2023-07-20T00:12:10;16.90;99.90
11961;DHT22;6040;49.358;11.140;2023-07-20T00:14:37;16.90;99.90
11961;DHT22;6040;49.358;11.140;2023-07-20T00:17:04;17.00;99.90
11961;DHT22;6040;49.358;11.140;2023-07-20T00:19:31;16.90;99.90
11961;DHT22;6040;49.358;11.140;2023-07-20T00:21:58;16.90;99.90
11961;DHT22;6040;49.358;11.140;2023-07-20T00:24:27;16.90;99.90
11961;DHT22;6040;49.358;11.140;2023-07-20T00:26:53;17.00;99.90
11961;DHT22;6040;49.358;11.140;2023-07-20T00:29:20;16.90;99.90
11961;DHT22;6040;49.358;11.140;2023-07-20T00:31:47;17.10;99.90
11961;DHT22;6040;49.358;11.140;2023-07-20T00:34:14;16.90;99.90
11961;DHT22;6040;49.358;11.140;2023-07-20T00:36:41;16.90;99.90
11961;DHT22;6040;49.358;11.140;2023-07-20T00:39:08;17.00;99.90
11961;DHT22;6040;49.358;11.140;2023-07-20T00:41:36;17.00;99.90
11961;DHT22;6040;49.358;11.140;2023-07-20T00:44:04;17.00;99.90
11961;DHT22;6040;49.358;11.140;2023-07-20T00:46:31;17.00;99.90
11961;DHT22;6040;49.358;11.140;2023-07-20T00:48:59;16.90;99.90
11961;DHT22;6040;49.358;11.140;2023-07-20T00:51:26;16.90;99.90
11961;DHT22;6040;49.358;11.140;2023-07-20T00:53:53;16.90;99.90
11961;DHT22;6040;49.358;11.140;2023-07-20T00:56:20;17.20;99.90
11961;DHT22;6040;49.358;11.140;2023-07-20T00:58:49;16.80;99.90
11961;DHT22;6040;49.358;11.140;2023-07-20T01:01:16;16.80;99.90
11961;DHT22;6040;49.358;11.140;2023-07-20T01:03:42;16.80;99.90
11961;DHT22;6040;49.358;11.140;2023-07-20T01:06:21;16.70;99.90
11961;DHT22;6040;49.358;11.140;2023-07-20T01:08:57;16.60;99.90
11961;DHT22;6040;49.358;11.140;2023-07-20T01:11:32;16.70;99.90
11961;DHT22;6040;49.358;11.140;2023-07-20T01:14:04;16.60;99.90
11961;DHT22;6040;49.358;11.140;2023-07-20T01:16:33;16.70;99.90
11961;DHT22;6040;49.358;11.140;2023-07-20T01:19:00;16.70;99.90
11961;DHT22;6040;49.358;11.140;2023-07-20T01:21:31;16.70;99.90
11961;DHT22;6040;49.358;11.140;2023-07-20T01:27:36;16.60;99.90
11961;DHT22;6040;49.358;11.140;2023-07-20T01:30:16;16.60;99.90
11961;DHT22;6040;49.358;11.140;2023-07-20T01:32:48;16.50;99.90
11961;DHT22;6040;49.358;11.140;2023-07-20T01:35:17;16.40;99.90
11961;DHT22;6040;49.358;11.140;2023-07-20T01:37:46;16.40;99.90
11961;DHT22;6040;49.358;11.140;2023-07-20T01:40:15;16.50;99.90
11961;DHT22;6040;49.358;11.140;2023-07-20T01:42:46;16.50;99.90
11961;DHT22;6040;49.358;11.140;2023-07-20T01:45:12;16.50;99.90
11961;DHT22;6040;49.358;11.140;2023-07-20T01:47:40;16.50;99.90
11961;DHT22;6040;49.358;11.140;2023-07-20T01:50:08;16.40;99.90
11961;DHT22;6040;49.358;11.140;2023-07-20T01:52:35;16.50;99.90
11961;DHT22;6040;49.358;11.140;2023-07-20T01:55:02;16.50;99.90
11961;DHT22;6040;49.358;11.140;2023-07-20T01:57:29;16.50;99.90
11961;DHT22;6040;49.358;11.140;2023-07-20T01:59:56;16.50;99.90
11961;DHT22;6040;49.358;11.140;2023-07-20T02:02:26;16.50;99.90
11961;DHT22;6040;49.358;11.140;2023-07-20T02:04:52;16.50;99.90
11961;DHT22;6040;49.358;11.140;2023-07-20T02:07:21;16.50;99.90
11961;DHT22;6040;49.358;11.140;2023-07-20T02:09:48;16.60;99.90
11961;DHT22;6040;49.358;11.140;2023-07-20T02:12:14;16.50;99.90
11961;DHT22;6040;49.358;11.140;2023-07-20T02:14:41;16.60;99.90
11961;DHT22;6040;49.358;11.140;2023-07-20T02:17:08;16.60;99.90
11961;DHT22;6040;49.358;11.140;2023-07-20T02:19:37;16.60;99.90
11961;DHT22;6040;49.358;11.140;2023-07-20T02:22:04;16.70;99.90
11961;DHT22;6040;49.358;11.140;2023-07-20T02:24:33;16.60;99.90
11961;DHT22;6040;49.358;11.140;2023-07-20T02:27:00;16.60;99.90
11961;DHT22;6040;49.358;11.140;2023-07-20T02:29:27;16.80;99.90
11961;DHT22;6040;49.358;11.140;2023-07-20T02:31:54;16.70;99.90
11961;DHT22;6040;49.358;11.140;2023-07-20T02:34:21;16.70;99.90
11961;DHT22;6040;49.358;11.140;2023-07-20T02:36:47;16.70;99.90
11961;DHT22;6040;49.358;11.140;2023-07-20T02:39:14;16.60;99.90
11961;DHT22;6040;49.358;11.140;2023-07-20T02:41:42;16.60;99.90
11961;DHT22;6040;49.358;11.140;2023-07-20T02:44:09;16.60;99.90
11961;DHT22;6040;49.358;11.140;2023-07-20T02:46:36;16.60;99.90
11961;DHT22;6040;49.358;11.140;2023-07-20T02:49:03;16.60;99.90
11961;DHT22;6040;49.358;11.140;2023-07-20T02:51:30;16.60;99.90
11961;DHT22;6040;49.358;11.140;2023-07-20T02:53:58;16.50;99.90
11961;DHT22;6040;49.358;11.140;2023-07-20T02:56:26;16.60;99.90
11961;DHT22;6040;49.358;11.140;2023-07-20T02:58:54;16.60;99.90
11961;DHT22;6040;49.358;11.140;2023-07-20T03:01:21;16.60;99.90
11961;DHT22;6040;49.358;11.140;2023-07-20T03:03:48;16.60;99.90
11961;DHT22;6040;49.358;11.140;2023-07-20T03:06:16;17.80;99.90
11961;DHT22;6040;49.358;11.140;2023-07-20T03:08:43;16.70;99.90
11961;DHT22;6040;49.358;11.140;2023-07-20T03:11:13;16.70;99.90
11961;DHT22;6040;49.358;11.140;2023-07-20T03:13:40;16.70;99.90
11961;DHT22;6040;49.358;11.140;2023-07-20T03:16:09;16.70;99.90
11961;DHT22;6040;49.358;11.140;2023-07-20T03:18:37;17.80;99.90
11961;DHT22;6040;49.358;11.140;2023-07-20T03:21:04;16.70;99.90
11961;DHT22;6040;49.358;11.140;2023-07-20T03:23:31;16.70;99.90
11961;DHT22;6040;49.358;11.140;2023-07-20T03:25:58;16.70;99.90
11961;DHT22;6040;49.358;11.140;2023-07-20T03:28:25;16.70;99.90
11961;DHT22;6040;49.358;11.140;2023-07-20T03:30:53;16.60;99.90
11961;DHT22;6040;49.358;11.140;2023-07-20T03:33:21;16.70;99.90
11961;DHT22;6040;49.358;11.140;2023-07-20T03:35:48;16.70;99.90
11961;DHT22;6040;49.358;11.140;2023-07-20T03:38:15;16.70;99.90
11961;DHT22;6040;49.358;11.140;2023-07-20T03:40:49;16.70;99.90
11961;DHT22;6040;49.358;11.140;2023-07-20T03:43:16;16.60;99.90
11961;DHT22;6040;49.358;11.140;2023-07-20T03:45:43;16.60;99.90
11961;DHT22;6040;49.358;11.140;2023-07-20T03:48:11;16.60;99.90
11961;DHT22;6040;49.358;11.140;2023-07-20T03:50:39;16.60;99.90
11961;DHT22;6040;49.358;11.140;2023-07-20T03:53:05;16.60;99.90
11961;DHT22;6040;49.358;11.140;2023-07-20T03:55:32;16.60;99.90
11961;DHT22;6040;49.358;11.140;2023-07-20T03:57:59;16.70;99.90
11961;DHT22;6040;49.358;11.140;2023-07-20T04:00:27;16.70;99.90
11961;DHT22;6040;49.358;11.140;2023-07-20T04:02:54;16.70;99.90
11961;DHT22;6040;49.358;11.140;2023-07-20T04:05:21;16.60;99.90
11961;DHT22;6040;49.358;11.140;2023-07-20T04:07:49;16.70;99.90
11961;DHT22;6040;49.358;11.140;2023-07-20T04:10:16;16.60;99.90
11961;DHT22;6040;49.358;11.140;2023-07-20T04:12:44;16.60;99.90
11961;DHT22;6040;49.358;11.140;2023-07-20T04:15:12;16.70;99.90
11961;DHT22;6040;49.358;11.140;2023-07-20T04:17:39;16.60;99.90
11961;DHT22;6040;49.358;11.140;2023-07-20T04:20:07;16.60;99.90
11961;DHT22;6040;49.358;11.140;2023-07-20T04:22:34;18.00;99.90
11961;DHT22;6040;49.358;11.140;2023-07-20T04:25:03;16.70;99.90
11961;DHT22;6040;49.358;11.140;2023-07-20T04:27:30;16.70;99.90
11961;DHT22;6040;49.358;11.140;2023-07-20T04:29:58;16.80;99.90
11961;DHT22;6040;49.358;11.140;2023-07-20T04:32:25;16.90;99.90
11961;DHT22;6040;49.358;11.140;2023-07-20T04:34:52;16.90;99.90
11961;DHT22;6040;49.358;11.140;2023-07-20T04:37:19;17.00;99.90
11961;DHT22;6040;49.358;11.140;2023-07-20T04:39:46;17.00;99.90
11961;DHT22;6040;49.358;11.140;2023-07-20T04:42:14;17.10;99.90
11961;DHT22;6040;49.358;11.140;2023-07-20T04:44:41;17.00;99.90
11961;DHT22;6040;49.358;11.140;2023-07-20T04:47:08;17.10;99.90
11961;DHT22;6040;49.358;11.140;2023-07-20T04:49:35;17.10;99.90
11961;DHT22;6040;49.358;11.140;2023-07-20T04:52:02;17.20;99.90
11961;DHT22;6040;49.358;11.140;2023-07-20T04:54:29;17.20;99.90
11961;DHT22;6040;49.358;11.140;2023-07-20T04:56:56;17.20;99.90
11961;DHT22;6040;49.358;11.140;2023-07-20T04:59:24;17.20;99.90
11961;DHT22;6040;49.358;11.140;2023-07-20T05:01:51;17.20;99.90
11961;DHT22;6040;49.358;11.140;2023-07-20T05:04:18;17.20;99.90
11961;DHT22;6040;49.358;11.140;2023-07-20T05:06:45;17.30;99.90
11961;DHT22;6040;49.358;11.140;2023-07-20T05:09:12;17.40;99.90
11961;DHT22;6040;49.358;11.140;2023-07-20T05:11:38;17.50;99.90
11961;DHT22;6040;49.358;11.140;2023-07-20T05:14:05;17.50;99.90
11961;DHT22;6040;49.358;11.140;2023-07-20T05:16:34;17.70;99.90
11961;DHT22;6040;49.358;11.140;2023-07-20T05:19:01;17.80;99.90
11961;DHT22;6040;49.358;11.140;2023-07-20T05:21:28;17.90;99.90
11961;DHT22;6040;49.358;11.140;2023-07-20T05:23:55;17.90;99.90
11961;DHT22;6040;49.358;11.140;2023-07-20T05:26:21;18.10;99.90
11961;DHT22;6040;49.358;11.140;2023-07-20T05:28:48;18.10;99.90
11961;DHT22;6040;49.358;11.140;2023-07-20T05:31:15;18.30;99.90
11961;DHT22;6040;49.358;11.140;2023-07-20T05:33:43;18.40;99.90
11961;DHT22;6040;49.358;11.140;2023-07-20T05:36:10;18.50;99.90
11961;DHT22;6040;49.358;11.140;2023-07-20T05:41:44;18.90;99.90
11961;DHT22;6040;49.358;11.140;2023-07-20T05:44:11;18.90;99.90
11961;DHT22;6040;49.358;11.140;2023-07-20T05:46:38;18.90;99.90
11961;DHT22;6040;49.358;11.140;2023-07-20T05:49:04;19.10;99.90
11961;DHT22;6040;49.358;11.140;2023-07-20T05:51:31;19.70;99.90
11961;DHT22;6040;49.358;11.140;2023-07-20T05:53:58;19.90;99.90
11961;DHT22;6040;49.358;11.140;2023-07-20T05:56:25;19.90;99.90
11961;DHT22;6040;49.358;11.140;2023-07-20T05:58:53;19.80;99.90
11961;DHT22;6040;49.358;11.140;2023-07-20T06:01:20;19.60;99.90
11961;DHT22;6040;49.358;11.140;2023-07-20T06:03:46;19.60;99.90
11961;DHT22;6040;49.358;11.140;2023-07-20T06:06:13;19.50;99.90
11961;DHT22;6040;49.358;11.140;2023-07-20T06:08:40;19.30;99.90
11961;DHT22;6040;49.358;11.140;2023-07-20T06:11:07;19.30;99.90
11961;DHT22;6040;49.358;11.140;2023-07-20T06:13:34;19.30;99.90
11961;DHT22;6040;49.358;11.140;2023-07-20T06:16:02;19.20;99.90
11961;DHT22;6040;49.358;11.140;2023-07-20T06:18:29;19.20;99.90
11961;DHT22;6040;49.358;11.140;2023-07-20T06:20:57;19.30;99.90
11961;DHT22;6040;49.358;11.140;2023-07-20T06:23:23;19.30;99.90
11961;DHT22;6040;49.358;11.140;2023-07-20T06:25:50;17.70;99.90
11961;DHT22;6040;49.358;11.140;2023-07-20T06:28:17;19.40;99.90
11961;DHT22;6040;49.358;11.140;2023-07-20T06:30:44;19.30;99.90
11961;DHT22;6040;49.358;11.140;2023-07-20T06:33:12;19.40;99.90
11961;DHT22;6040;49.358;11.140;2023-07-20T06:35:41;19.60;99.90
11961;DHT22;6040;49.358;11.140;2023-07-20T06:38:08;20.30;99.90
11961;DHT22;6040;49.358;11.140;2023-07-20T06:40:35;21.40;99.90
11961;DHT22;6040;49.358;11.140;2023-07-20T06:43:02;22.20;99.90
11961;DHT22;6040;49.358;11.140;2023-07-20T06:45:28;22.70;99.90
11961;DHT22;6040;49.358;11.140;2023-07-20T06:47:56;23.10;99.90
11961;DHT22;6040;49.358;11.140;2023-07-20T06:50:24;23.20;99.90
11961;DHT22;6040;49.358;11.140;2023-07-20T06:52:51;23.10;99.90
11961;DHT22;6040;49.358;11.140;2023-07-20T06:55:18;23.10;99.90
11961;DHT22;6040;49.358;11.140;2023-07-20T06:57:44;22.90;99.90
11961;DHT22;6040;49.358;11.140;2023-07-20T07:00:12;22.60;99.90
11961;DHT22;6040;49.358;11.140;2023-07-20T07:02:40;22.70;99.90
11961;DHT22;6040;49.358;11.140;2023-07-20T07:05:07;23.10;99.90
11961;DHT22;6040;49.358;11.140;2023-07-20T07:07:35;23.30;99.90
11961;DHT22;6040;49.358;11.140;2023-07-20T07:10:02;23.50;99.90
11961;DHT22;6040;49.358;11.140;2023-07-20T07:12:30;23.90;99.50
11961;DHT22;6040;49.358;11.140;2023-07-20T07:14:57;24.20;98.30
11961;DHT22;6040;49.358;11.140;2023-07-20T07:17:24;25.40;98.60
11961;DHT22;6040;49.358;11.140;2023-07-20T07:19:52;24.30;98.80
11961;DHT22;6040;49.358;11.140;2023-07-20T07:22:20;24.80;98.10
11961;DHT22;6040;49.358;11.140;2023-07-20T07:24:48;24.80;96.80
11961;DHT22;6040;49.358;11.140;2023-07-20T07:27:15;24.90;96.80
11961;DHT22;6040;49.358;11.140;2023-07-20T07:29:42;25.40;97.10
11961;DHT22;6040;49.358;11.140;2023-07-20T07:32:10;25.40;96.20
11961;DHT22;6040;49.358;11.140;2023-07-20T07:34:37;25.20;95.90
11961;DHT22;6040;49.358;11.140;2023-07-20T07:37:05;25.30;95.40
11961;DHT22;6040;49.358;11.140;2023-07-20T07:39:32;25.80;95.80
11961;DHT22;6040;49.358;11.140;2023-07-20T07:42:00;26.10;94.60
11961;DHT22;6040;49.358;11.140;2023-07-20T07:44:27;26.40;95.50
11961;DHT22;6040;49.358;11.140;2023-07-20T07:46:53;26.80;93.30
11961;DHT22;6040;49.358;11.140;2023-07-20T07:49:20;26.90;92.40
11961;DHT22;6040;49.358;11.140;2023-07-20T07:51:47;26.80;92.30
11961;DHT22;6040;49.358;11.140;2023-07-20T07:54:14;26.90;91.50
11961;DHT22;6040;49.358;11.140;2023-07-20T07:56:41;29.20;92.50
11961;DHT22;6040;49.358;11.140;2023-07-20T07:59:11;26.90;90.50
11961;DHT22;6040;49.358;11.140;2023-07-20T08:01:37;26.80;90.80
11961;DHT22;6040;49.358;11.140;2023-07-20T08:04:04;26.60;90.90
11961;DHT22;6040;49.358;11.140;2023-07-20T08:06:31;26.70;91.10
11961;DHT22;6040;49.358;11.140;2023-07-20T08:08:58;26.40;91.70
11961;DHT22;6040;49.358;11.140;2023-07-20T08:11:24;26.40;90.60
11961;DHT22;6040;49.358;11.140;2023-07-20T08:13:51;26.50;91.70
11961;DHT22;6040;49.358;11.140;2023-07-20T08:16:19;26.80;91.00
11961;DHT22;6040;49.358;11.140;2023-07-20T08:18:48;26.90;90.50
11961;DHT22;6040;49.358;11.140;2023-07-20T08:21:15;27.10;90.20
11961;DHT22;6040;49.358;11.140;2023-07-20T08:23:42;27.70;89.30
11961;DHT22;6040;49.358;11.140;2023-07-20T08:26:08;27.60;88.10
11961;DHT22;6040;49.358;11.140;2023-07-20T08:28:35;27.80;89.30
11961;DHT22;6040;49.358;11.140;2023-07-20T08:31:05;27.70;87.90
11961;DHT22;6040;49.358;11.140;2023-07-20T08:33:33;27.30;87.10
11961;DHT22;6040;49.358;11.140;2023-07-20T08:36:00;27.10;88.40
11961;DHT22;6040;49.358;11.140;2023-07-20T08:38:29;27.60;89.30
11961;DHT22;6040;49.358;11.140;2023-07-20T08:40:55;27.40;84.00
11961;DHT22;6040;49.358;11.140;2023-07-20T08:43:25;27.10;83.40
11961;DHT22;6040;49.358;11.140;2023-07-20T08:45:54;26.80;85.80
11961;DHT22;6040;49.358;11.140;2023-07-20T08:48:21;26.10;87.50
11961;DHT22;6040;49.358;11.140;2023-07-20T08:50:51;25.90;88.30
11961;DHT22;6040;49.358;11.140;2023-07-20T08:53:19;25.70;90.30
11961;DHT22;6040;49.358;11.140;2023-07-20T08:55:50;25.80;89.70
11961;DHT22;6040;49.358;11.140;2023-07-20T08:58:17;26.50;88.90
11961;DHT22;6040;49.358;11.140;2023-07-20T09:00:44;26.60;87.00
11961;DHT22;6040;49.358;11.140;2023-07-20T09:03:12;26.70;87.50
11961;DHT22;6040;49.358;11.140;2023-07-20T09:05:39;26.10;85.10
11961;DHT22;6040;49.358;11.140;2023-07-20T09:08:08;25.80;85.30
11961;DHT22;6040;49.358;11.140;2023-07-20T09:10:34;25.70;88.70
11961;DHT22;6040;49.358;11.140;2023-07-20T09:13:01;25.50;86.80
11961;DHT22;6040;49.358;11.140;2023-07-20T09:15:29;25.40;85.70
11961;DHT22;6040;49.358;11.140;2023-07-20T09:17:56;25.40;86.30
11961;DHT22;6040;49.358;11.140;2023-07-20T09:20:22;25.00;86.40
11961;DHT22;6040;49.358;11.140;2023-07-20T09:22:51;24.60;88.30
11961;DHT22;6040;49.358;11.140;2023-07-20T09:25:19;24.70;88.60
11961;DHT22;6040;49.358;11.140;2023-07-20T09:27:47;25.20;87.40
11961;DHT22;6040;49.358;11.140;2023-07-20T09:30:16;25.30;87.20
11961;DHT22;6040;49.358;11.140;2023-07-20T09:32:44;25.20;86.60
11961;DHT22;6040;49.358;11.140;2023-07-20T09:35:14;25.00;85.50
11961;DHT22;6040;49.358;11.140;2023-07-20T09:37:46;25.40;88.90
11961;DHT22;6040;49.358;11.140;2023-07-20T09:40:15;26.20;87.10
11961;DHT22;6040;49.358;11.140;2023-07-20T09:42:44;26.40;82.20
11961;DHT22;6040;49.358;11.140;2023-07-20T09:45:11;26.10;82.50
11961;DHT22;6040;49.358;11.140;2023-07-20T09:47:38;25.80;84.00
11961;DHT22;6040;49.358;11.140;2023-07-20T09:50:07;25.40;85.30
11961;DHT22;6040;49.358;11.140;2023-07-20T09:52:38;25.20;84.90
11961;DHT22;6040;49.358;11.140;2023-07-20T09:55:07;25.80;86.30
11961;DHT22;6040;49.358;11.140;2023-07-20T09:57:34;26.40;85.60
11961;DHT22;6040;49.358;11.140;2023-07-20T10:00:05;26.90;86.50
11961;DHT22;6040;49.358;11.140;2023-07-20T10:02:41;27.30;82.40
11961;DHT22;6040;49.358;11.140;2023-07-20T10:05:11;27.30;82.60
11961;DHT22;6040;49.358;11.140;2023-07-20T10:07:47;27.70;80.30
11961;DHT22;6040;49.358;11.140;2023-07-20T10:10:15;27.80;80.80
11961;DHT22;6040;49.358;11.140;2023-07-20T10:12:43;27.90;78.80
11961;DHT22;6040;49.358;11.140;2023-07-20T10:15:18;27.80;78.70
11961;DHT22;6040;49.358;11.140;2023-07-20T10:17:52;27.30;77.90
11961;DHT22;6040;49.358;11.140;2023-07-20T10:20:20;26.80;78.70
11961;DHT22;6040;49.358;11.140;2023-07-20T10:22:49;26.40;80.40
11961;DHT22;6040;49.358;11.140;2023-07-20T10:25:20;26.00;79.50
11961;DHT22;6040;49.358;11.140;2023-07-20T10:27:48;25.70;81.20
11961;DHT22;6040;49.358;11.140;2023-07-20T10:30:17;25.40;84.30
11961;DHT22;6040;49.358;11.140;2023-07-20T10:32:45;25.40;83.30
11961;DHT22;6040;49.358;11.140;2023-07-20T10:35:13;25.60;81.90
11961;DHT22;6040;49.358;11.140;2023-07-20T10:37:47;25.60;82.40
11961;DHT22;6040;49.358;11.140;2023-07-20T10:40:25;25.70;81.40
11961;DHT22;6040;49.358;11.140;2023-07-20T10:42:57;25.70;80.00
11961;DHT22;6040;49.358;11.140;2023-07-20T10:45:48;25.90;83.90
11961;DHT22;6040;49.358;11.140;2023-07-20T10:48:16;26.40;80.00
11961;DHT22;6040;49.358;11.140;2023-07-20T10:50:43;26.80;78.70
11961;DHT22;6040;49.358;11.140;2023-07-20T10:53:11;27.10;78.70
11961;DHT22;6040;49.358;11.140;2023-07-20T10:55:38;27.20;78.80
11961;DHT22;6040;49.358;11.140;2023-07-20T10:58:09;27.40;78.70
11961;DHT22;6040;49.358;11.140;2023-07-20T11:00:55;27.60;78.20
11961;DHT22;6040;49.358;11.140;2023-07-20T11:03:30;27.80;75.80
11961;DHT22;6040;49.358;11.140;2023-07-20T11:05:58;27.90;79.00
11961;DHT22;6040;49.358;11.140;2023-07-20T11:08:42;27.80;74.80
11961;DHT22;6040;49.358;11.140;2023-07-20T11:11:22;27.30;72.80
11961;DHT22;6040;49.358;11.140;2023-07-20T11:13:56;26.80;76.40
11961;DHT22;6040;49.358;11.140;2023-07-20T11:16:38;26.40;74.40
11961;DHT22;6040;49.358;11.140;2023-07-20T11:19:06;26.30;75.80
11961;DHT22;6040;49.358;11.140;2023-07-20T11:21:41;26.50;74.80
11961;DHT22;6040;49.358;11.140;2023-07-20T11:24:08;26.80;74.60
11961;DHT22;6040;49.358;11.140;2023-07-20T11:26:47;27.20;72.50
11961;DHT22;6040;49.358;11.140;2023-07-20T11:29:16;27.80;72.50
11961;DHT22;6040;49.358;11.140;2023-07-20T11:31:45;28.10;69.00
11961;DHT22;6040;49.358;11.140;2023-07-20T11:34:14;27.80;69.40
11961;DHT22;6040;49.358;11.140;2023-07-20T11:36:42;27.70;69.70
11961;DHT22;6040;49.358;11.140;2023-07-20T11:39:10;27.60;73.00
11961;DHT22;6040;49.358;11.140;2023-07-20T11:41:37;27.70;71.50
11961;DHT22;6040;49.358;11.140;2023-07-20T11:44:05;27.90;71.30
11961;DHT22;6040;49.358;11.140;2023-07-20T11:46:33;27.90;70.30
11961;DHT22;6040;49.358;11.140;2023-07-20T11:49:02;28.00;71.10
11961;DHT22;6040;49.358;11.140;2023-07-20T11:51:29;28.20;69.30
11961;DHT22;6040;49.358;11.140;2023-07-20T11:53:56;28.00;66.40
11961;DHT22;6040;49.358;11.140;2023-07-20T11:56:24;27.70;69.40
11961;DHT22;6040;49.358;11.140;2023-07-20T11:58:54;27.90;70.30
11961;DHT22;6040;49.358;11.140;2023-07-20T12:01:23;27.70;70.20
11961;DHT22;6040;49.358;11.140;2023-07-20T12:03:50;27.90;69.00
11961;DHT22;6040;49.358;11.140;2023-07-20T12:06:18;28.20;66.40
11961;DHT22;6040;49.358;11.140;2023-07-20T12:08:49;28.40;64.50
11961;DHT22;6040;49.358;11.140;2023-07-20T12:11:31;28.20;60.60
11961;DHT22;6040;49.358;11.140;2023-07-20T12:13:58;27.80;62.20
11961;DHT22;6040;49.358;11.140;2023-07-20T12:16:27;27.80;64.10
11961;DHT22;6040;49.358;11.140;2023-07-20T12:18:59;27.90;62.30
11961;DHT22;6040;49.358;11.140;2023-07-20T12:21:28;27.80;62.40
11961;DHT22;6040;49.358;11.140;2023-07-20T12:23:56;27.70;62.70
11961;DHT22;6040;49.358;11.140;2023-07-20T12:26:24;28.00;63.50
11961;DHT22;6040;49.358;11.140;2023-07-20T12:28:51;28.50;65.30
11961;DHT22;6040;49.358;11.140;2023-07-20T12:31:18;28.90;68.70
11961;DHT22;6040;49.358;11.140;2023-07-20T12:33:46;29.00;63.70
11961;DHT22;6040;49.358;11.140;2023-07-20T12:36:13;29.10;60.70
11961;DHT22;6040;49.358;11.140;2023-07-20T12:38:42;29.20;60.90
11961;DHT22;6040;49.358;11.140;2023-07-20T12:41:10;28.90;61.30
11961;DHT22;6040;49.358;11.140;2023-07-20T12:43:39;28.50;62.50
11961;DHT22;6040;49.358;11.140;2023-07-20T12:46:06;28.40;62.60
11961;DHT22;6040;49.358;11.140;2023-07-20T12:48:33;28.40;65.30
11961;DHT22;6040;49.358;11.140;2023-07-20T12:51:02;28.60;60.40
11961;DHT22;6040;49.358;11.140;2023-07-20T12:53:30;28.70;59.20
11961;DHT22;6040;49.358;11.140;2023-07-20T12:55:58;29.00;60.20
11961;DHT22;6040;49.358;11.140;2023-07-20T12:58:25;29.10;59.30
11961;DHT22;6040;49.358;11.140;2023-07-20T13:00:52;29.10;59.60
11961;DHT22;6040;49.358;11.140;2023-07-20T13:03:19;29.30;61.60
11961;DHT22;6040;49.358;11.140;2023-07-20T13:05:46;29.10;59.10
11961;DHT22;6040;49.358;11.140;2023-07-20T13:08:13;29.20;58.90
11961;DHT22;6040;49.358;11.140;2023-07-20T13:10:41;29.00;58.30
11961;DHT22;6040;49.358;11.140;2023-07-20T13:13:09;29.20;58.20
11961;DHT22;6040;49.358;11.140;2023-07-20T13:15:41;29.30;57.90
11961;DHT22;6040;49.358;11.140;2023-07-20T13:18:08;29.20;59.00
11961;DHT22;6040;49.358;11.140;2023-07-20T13:20:35;28.80;58.90
11961;DHT22;6040;49.358;11.140;2023-07-20T13:23:02;28.50;59.30
11961;DHT22;6040;49.358;11.140;2023-07-20T13:25:29;28.20;58.50
11961;DHT22;6040;49.358;11.140;2023-07-20T13:27:56;28.00;60.30
11961;DHT22;6040;49.358;11.140;2023-07-20T13:30:24;29.00;62.00
11961;DHT22;6040;49.358;11.140;2023-07-20T13:32:51;28.00;60.30
11961;DHT22;6040;49.358;11.140;2023-07-20T13:37:45;27.70;60.30
11961;DHT22;6040;49.358;11.140;2023-07-20T13:40:12;27.80;60.90
11961;DHT22;6040;49.358;11.140;2023-07-20T13:42:40;27.80;61.60
11961;DHT22;6040;49.358;11.140;2023-07-20T13:45:08;27.80;61.80
11961;DHT22;6040;49.358;11.140;2023-07-20T13:47:36;27.30;60.50
11961;DHT22;6040;49.358;11.140;2023-07-20T13:50:04;27.20;61.10
11961;DHT22;6040;49.358;11.140;2023-07-20T13:52:30;27.20;62.20
11961;DHT22;6040;49.358;11.140;2023-07-20T13:54:57;27.20;63.10
11961;DHT22;6040;49.358;11.140;2023-07-20T13:57:24;27.00;63.10
11961;DHT22;6040;49.358;11.140;2023-07-20T13:59:51;26.80;62.70
11961;DHT22;6040;49.358;11.140;2023-07-20T14:02:18;26.70;63.90
11961;DHT22;6040;49.358;11.140;2023-07-20T14:04:46;26.70;65.40
11961;DHT22;6040;49.358;11.140;2023-07-20T14:07:13;27.00;64.10
11961;DHT22;6040;49.358;11.140;2023-07-20T14:09:40;27.30;62.20
11961;DHT22;6040;49.358;11.140;2023-07-20T14:12:07;27.60;62.20
11961;DHT22;6040;49.358;11.140;2023-07-20T14:14:37;27.80;62.30
11961;DHT22;6040;49.358;11.140;2023-07-20T14:17:04;27.60;62.50
11961;DHT22;6040;49.358;11.140;2023-07-20T14:19:31;27.50;62.10
11961;DHT22;6040;49.358;11.140;2023-07-20T14:21:59;27.70;56.70
11961;DHT22;6040;49.358;11.140;2023-07-20T14:24:27;27.80;59.40
11961;DHT22;6040;49.358;11.140;2023-07-20T14:26:53;27.40;58.40
11961;DHT22;6040;49.358;11.140;2023-07-20T14:29:21;27.10;58.10
11961;DHT22;6040;49.358;11.140;2023-07-20T14:31:48;27.20;57.60
11961;DHT22;6040;49.358;11.140;2023-07-20T14:34:16;27.30;56.50
11961;DHT22;6040;49.358;11.140;2023-07-20T14:36:44;27.40;56.50
11961;DHT22;6040;49.358;11.140;2023-07-20T14:39:12;27.20;58.50
11961;DHT22;6040;49.358;11.140;2023-07-20T14:41:39;27.10;57.80
11961;DHT22;6040;49.358;11.140;2023-07-20T14:44:06;26.60;57.70
11961;DHT22;6040;49.358;11.140;2023-07-20T14:46:32;26.50;58.00
11961;DHT22;6040;49.358;11.140;2023-07-20T14:48:59;26.40;59.00
11961;DHT22;6040;49.358;11.140;2023-07-20T14:51:27;26.20;60.30
11961;DHT22;6040;49.358;11.140;2023-07-20T14:53:57;26.30;60.50
11961;DHT22;6040;49.358;11.140;2023-07-20T14:56:25;26.60;59.70
11961;DHT22;6040;49.358;11.140;2023-07-20T14:58:52;26.90;60.30
11961;DHT22;6040;49.358;11.140;2023-07-20T15:01:19;27.10;59.00
11961;DHT22;6040;49.358;11.140;2023-07-20T15:03:45;27.30;59.30
11961;DHT22;6040;49.358;11.140;2023-07-20T15:06:12;27.20;58.30
11961;DHT22;6040;49.358;11.140;2023-07-20T15:08:39;27.20;58.20
11961;DHT22;6040;49.358;11.140;2023-07-20T15:11:06;27.10;60.00
11961;DHT22;6040;49.358;11.140;2023-07-20T15:13:34;26.80;58.00
11961;DHT22;6040;49.358;11.140;2023-07-20T15:16:01;26.70;57.20
11961;DHT22;6040;49.358;11.140;2023-07-20T15:18:27;26.50;59.30
11961;DHT22;6040;49.358;11.140;2023-07-20T15:20:54;26.60;60.40
11961;DHT22;6040;49.358;11.140;2023-07-20T15:23:21;26.80;57.70
11961;DHT22;6040;49.358;11.140;2023-07-20T15:25:48;27.00;58.80
11961;DHT22;6040;49.358;11.140;2023-07-20T15:28:15;27.20;58.80
11961;DHT22;6040;49.358;11.140;2023-07-20T15:30:43;27.00;59.70
11961;DHT22;6040;49.358;11.140;2023-07-20T15:33:10;27.00;60.30
11961;DHT22;6040;49.358;11.140;2023-07-20T15:35:37;26.90;60.20
11961;DHT22;6040;49.358;11.140;2023-07-20T15:38:04;26.80;59.30
11961;DHT22;6040;49.358;11.140;2023-07-20T15:40:30;26.80;60.40
11961;DHT22;6040;49.358;11.140;2023-07-20T15:42:57;26.70;60.60
11961;DHT22;6040;49.358;11.140;2023-07-20T15:45:24;26.50;59.70